createdAt,value
2019-03-11T00:01:46.047Z,6.50
2019-03-11T00:04:14.569Z,6.70
2019-03-11T00:06:42.448Z,6.60
2019-03-11T00:09:09.843Z,6.70
2019-03-11T00:11:37.564Z,6.60
2019-03-11T00:14:04.951Z,6.60
2019-03-11T00:16:32.359Z,6.60
2019-03-11T00:18:59.942Z,6.70
2019-03-11T00:21:27.335Z,6.80
2019-03-11T00:23:54.723Z,6.90
2019-03-11T00:26:22.139Z,6.90
2019-03-11T00:28:49.539Z,6.80
2019-03-11T00:31:16.980Z,6.90
2019-03-11T00:33:44.388Z,6.80
2019-03-11T00:36:11.791Z,6.80
2019-03-11T00:38:39.182Z,6.90
2019-03-11T00:41:06.635Z,7.00
2019-03-11T00:43:34.331Z,7.20
2019-03-11T00:46:01.731Z,7.30
2019-03-11T00:48:29.187Z,7.30
2019-03-11T00:50:56.569Z,7.30
2019-03-11T00:53:23.956Z,7.30
2019-03-11T00:55:51.584Z,7.30
2019-03-11T00:58:21.152Z,7.40
2019-03-11T01:00:48.635Z,7.40
2019-03-11T01:03:16.107Z,7.40
2019-03-11T01:05:43.511Z,7.40
2019-03-11T01:08:10.907Z,7.50
2019-03-11T01:10:38.392Z,7.60
2019-03-11T01:13:05.927Z,7.60
2019-03-11T01:15:33.316Z,7.60
2019-03-11T01:18:00.820Z,7.70
2019-03-11T01:20:28.208Z,7.60
2019-03-11T01:22:55.612Z,7.60
2019-03-11T01:25:23.268Z,7.80
2019-03-11T01:27:50.735Z,7.70
2019-03-11T01:30:18.220Z,7.70
2019-03-11T01:32:46.786Z,7.60
2019-03-11T01:35:14.167Z,7.50
2019-03-11T01:37:41.557Z,7.40
2019-03-11T01:40:10.891Z,7.40
2019-03-11T01:42:38.291Z,7.50
2019-03-11T01:45:07.172Z,7.50
2019-03-11T01:47:34.828Z,7.50
2019-03-11T01:50:02.722Z,7.40
2019-03-11T01:52:30.112Z,7.40
2019-03-11T01:54:57.639Z,7.40
2019-03-11T01:57:25.213Z,7.30
2019-03-11T01:59:52.799Z,7.30
2019-03-11T02:02:20.524Z,7.30
2019-03-11T02:04:47.919Z,7.30
2019-03-11T02:07:15.333Z,7.30
2019-03-11T02:09:42.908Z,7.30
2019-03-11T02:12:10.299Z,7.20
2019-03-11T02:14:37.695Z,7.20
2019-03-11T02:17:05.399Z,7.20
2019-03-11T02:19:32.796Z,7.10
2019-03-11T02:22:00.182Z,7.20
2019-03-11T02:24:27.658Z,7.10
2019-03-11T02:26:55.046Z,7.20
2019-03-11T02:29:22.453Z,7.20
2019-03-11T02:31:50.077Z,7.20
2019-03-11T02:34:17.484Z,7.10
2019-03-11T02:36:44.880Z,7.10
2019-03-11T02:39:12.679Z,7.00
2019-03-11T02:41:40.076Z,7.00
2019-03-11T02:44:07.490Z,7.00
2019-03-11T02:46:34.934Z,7.10
2019-03-11T02:49:02.358Z,7.00
2019-03-11T02:51:29.772Z,7.00
2019-03-11T02:53:57.757Z,7.10
2019-03-11T02:56:25.139Z,6.90
2019-03-11T02:58:52.915Z,6.90
2019-03-11T03:01:38.761Z,6.80
2019-03-11T03:04:10.965Z,6.80
2019-03-11T03:06:38.376Z,6.70
2019-03-11T03:09:12.593Z,6.70
2019-03-11T03:11:41.201Z,6.70
2019-03-11T03:14:08.609Z,6.60
2019-03-11T03:16:36.219Z,6.50
2019-03-11T03:19:03.605Z,6.50
2019-03-11T03:21:30.990Z,6.40
2019-03-11T03:23:58.396Z,6.40
2019-03-11T03:26:25.797Z,6.30
2019-03-11T03:28:53.203Z,6.30
2019-03-11T03:31:20.685Z,6.20
2019-03-11T03:33:48.117Z,6.20
2019-03-11T03:36:15.583Z,6.20
2019-03-11T03:38:43.180Z,6.10
2019-03-11T03:41:10.568Z,6.10
2019-03-11T03:43:37.981Z,6.10
2019-03-11T03:46:18.089Z,6.10
2019-03-11T03:48:34.652Z,6.10
2019-03-11T03:51:01.997Z,6.00
2019-03-11T03:53:29.506Z,6.10
2019-03-11T03:55:56.902Z,6.10
2019-03-11T03:58:24.527Z,6.00
2019-03-11T04:00:53.015Z,6.00
2019-03-11T04:03:20.455Z,5.90
2019-03-11T04:05:47.914Z,5.80
2019-03-11T04:08:15.341Z,5.70
2019-03-11T04:10:42.736Z,5.60
2019-03-11T04:13:10.149Z,5.60
2019-03-11T04:15:37.942Z,5.50
2019-03-11T04:18:08.390Z,5.40
2019-03-11T04:20:36.284Z,5.40
2019-03-11T04:23:03.821Z,5.40
2019-03-11T04:25:31.226Z,5.30
2019-03-11T04:28:18.215Z,5.30
2019-03-11T04:30:45.894Z,5.20
2019-03-11T04:33:13.292Z,5.20
2019-03-11T04:35:41.012Z,5.00
2019-03-11T04:38:08.404Z,4.90
2019-03-11T04:40:35.810Z,4.80
2019-03-11T04:43:03.262Z,4.70
2019-03-11T04:45:30.664Z,4.60
2019-03-11T04:47:58.054Z,4.50
2019-03-11T04:50:25.575Z,4.40
2019-03-11T04:52:52.966Z,4.40
2019-03-11T04:55:20.363Z,4.30
2019-03-11T04:57:50.391Z,4.20
2019-03-11T05:00:20.045Z,4.10
2019-03-11T05:02:47.638Z,4.10
2019-03-11T05:05:15.175Z,4.00
2019-03-11T05:07:42.571Z,4.00
2019-03-11T05:10:10.235Z,3.90
2019-03-11T05:12:38.059Z,3.90
2019-03-11T05:15:05.863Z,3.80
2019-03-11T05:17:33.272Z,3.80
2019-03-11T05:20:00.855Z,3.70
2019-03-11T05:22:28.255Z,3.60
2019-03-11T05:24:55.657Z,3.60
2019-03-11T05:27:23.139Z,3.50
2019-03-11T05:29:50.877Z,3.60
2019-03-11T05:32:18.641Z,3.60
2019-03-11T05:34:46.591Z,3.50
2019-03-11T05:37:13.991Z,3.60
2019-03-11T05:39:41.383Z,3.70
2019-03-11T05:42:08.842Z,3.70
2019-03-11T05:44:36.271Z,3.70
2019-03-11T05:47:03.659Z,3.70
2019-03-11T05:49:31.092Z,3.90
2019-03-11T05:51:58.489Z,3.90
2019-03-11T05:54:25.879Z,4.00
2019-03-11T05:56:53.340Z,4.00
2019-03-11T05:59:20.768Z,4.10
2019-03-11T06:01:48.180Z,4.20
2019-03-11T06:04:15.647Z,4.20
2019-03-11T06:06:43.063Z,4.20
2019-03-11T06:09:10.451Z,4.40
2019-03-11T06:11:37.924Z,4.40
2019-03-11T06:14:05.349Z,4.50
2019-03-11T06:16:32.727Z,4.60
2019-03-11T06:19:00.178Z,4.60
2019-03-11T06:21:50.409Z,4.70
2019-03-11T06:24:19.843Z,4.80
2019-03-11T06:26:47.247Z,4.90
2019-03-11T06:29:14.780Z,4.90
2019-03-11T06:31:42.651Z,5.00
2019-03-11T06:34:10.063Z,5.00
2019-03-11T06:36:37.461Z,5.10
2019-03-11T06:39:07.096Z,5.10
2019-03-11T06:41:34.471Z,5.20
2019-03-11T06:44:01.971Z,5.30
2019-03-11T06:46:29.764Z,5.30
2019-03-11T06:48:57.167Z,5.30
2019-03-11T06:51:24.583Z,5.40
2019-03-11T06:53:52.677Z,5.40
2019-03-11T06:56:20.059Z,5.60
2019-03-11T06:58:47.459Z,5.70
2019-03-11T07:01:14.896Z,5.80
2019-03-11T07:03:42.292Z,5.90
2019-03-11T07:06:09.695Z,6.00
2019-03-11T07:08:37.132Z,6.20
2019-03-11T07:11:04.535Z,6.30
2019-03-11T07:13:31.929Z,6.30
2019-03-11T07:15:59.371Z,6.40
2019-03-11T07:18:26.779Z,6.40
2019-03-11T07:20:54.195Z,6.30
2019-03-11T07:23:21.628Z,6.40
2019-03-11T07:25:49.083Z,6.30
2019-03-11T07:28:16.509Z,6.30
2019-03-11T07:30:43.957Z,6.40
2019-03-11T07:33:11.751Z,6.60
2019-03-11T07:35:39.259Z,6.60
2019-03-11T07:38:06.884Z,6.70
2019-03-11T07:40:34.372Z,6.80
2019-03-11T07:43:01.692Z,6.90
2019-03-11T07:45:29.591Z,6.90
2019-03-11T07:47:56.980Z,7.00
2019-03-11T07:50:24.387Z,7.10
2019-03-11T07:52:51.969Z,7.30
2019-03-11T07:55:21.295Z,7.40
2019-03-11T07:57:48.552Z,7.60
2019-03-11T08:00:16.474Z,7.70
2019-03-11T08:02:43.995Z,7.70
2019-03-11T08:05:11.580Z,7.80
2019-03-11T08:07:39.199Z,7.80
2019-03-11T08:10:08.239Z,7.90
2019-03-11T08:12:35.703Z,7.90
2019-03-11T08:15:04.340Z,8.00
2019-03-11T08:17:31.747Z,8.10
2019-03-11T08:19:59.143Z,8.10
2019-03-11T08:22:26.837Z,8.20
2019-03-11T08:24:55.899Z,8.30
2019-03-11T08:27:23.311Z,8.40
2019-03-11T08:29:51.519Z,8.40
2019-03-11T08:32:18.908Z,8.40
2019-03-11T08:34:46.310Z,8.50
2019-03-11T08:37:13.781Z,8.60
2019-03-11T08:39:41.172Z,8.70
2019-03-11T08:42:08.559Z,8.80
2019-03-11T08:44:36.148Z,8.90
2019-03-11T08:47:03.538Z,8.80
2019-03-11T08:49:30.939Z,8.80
2019-03-11T08:51:58.379Z,8.90
2019-03-11T08:54:25.798Z,8.90
2019-03-11T08:56:53.211Z,8.80
2019-03-11T08:59:20.643Z,8.50
2019-03-11T09:01:48.038Z,8.50
2019-03-11T09:04:15.438Z,8.30
2019-03-11T09:06:42.911Z,8.20
2019-03-11T09:09:12.129Z,8.20
2019-03-11T09:11:39.516Z,7.90
2019-03-11T09:14:06.942Z,7.00
2019-03-11T09:16:34.419Z,6.40
2019-03-11T09:19:01.823Z,5.90
2019-03-11T09:21:29.412Z,5.30
2019-03-11T09:23:56.855Z,4.90
2019-03-11T09:26:24.263Z,4.50
2019-03-11T09:28:52.210Z,4.50
2019-03-11T09:31:20.485Z,4.40
2019-03-11T09:33:47.884Z,4.00
2019-03-11T09:36:15.291Z,4.00
2019-03-11T09:38:42.764Z,3.50
2019-03-11T09:41:10.118Z,3.40
2019-03-11T09:43:37.525Z,2.90
2019-03-11T09:46:05.199Z,2.80
2019-03-11T09:48:32.587Z,2.80
2019-03-11T09:51:00.068Z,2.60
2019-03-11T09:53:27.716Z,2.60
2019-03-11T09:55:55.107Z,2.60
2019-03-11T09:58:22.646Z,2.50
2019-03-11T10:00:50.104Z,2.60
2019-03-11T10:03:17.535Z,2.50
2019-03-11T10:05:44.980Z,2.40
2019-03-11T10:08:12.559Z,2.40
2019-03-11T10:10:40.050Z,2.50
2019-03-11T10:13:07.437Z,2.50
2019-03-11T10:15:34.884Z,2.50
2019-03-11T10:18:02.440Z,2.40
2019-03-11T10:20:29.879Z,2.40
2019-03-11T10:22:57.428Z,2.40
2019-03-11T10:25:24.827Z,2.40
2019-03-11T10:27:52.231Z,2.30
2019-03-11T10:30:19.782Z,2.50
2019-03-11T10:32:47.483Z,2.40
2019-03-11T10:35:30.703Z,2.60
2019-03-11T10:37:45.425Z,2.70
2019-03-11T10:40:14.887Z,2.60
2019-03-11T10:42:42.283Z,2.80
2019-03-11T10:45:10.603Z,2.90
2019-03-11T10:47:38.073Z,3.20
2019-03-11T10:50:06.271Z,3.40
2019-03-11T10:52:33.795Z,3.60
2019-03-11T10:55:01.175Z,3.90
2019-03-11T10:57:28.580Z,4.10
2019-03-11T10:59:56.038Z,4.30
2019-03-11T11:02:23.485Z,4.50
2019-03-11T11:04:50.952Z,4.40
2019-03-11T11:07:18.388Z,4.60
2019-03-11T11:09:45.871Z,4.60
2019-03-11T11:12:13.316Z,4.50
2019-03-11T11:14:41.172Z,4.70
2019-03-11T11:17:08.580Z,4.90
2019-03-11T11:19:35.960Z,5.20
2019-03-11T11:22:03.395Z,5.30
2019-03-11T11:24:30.790Z,5.30
2019-03-11T11:26:58.197Z,5.40
2019-03-11T11:29:25.846Z,5.40
2019-03-11T11:31:53.419Z,5.10
2019-03-11T11:34:21.429Z,5.30
2019-03-11T11:36:49.048Z,5.30
2019-03-11T11:39:17.888Z,5.40
2019-03-11T11:41:45.255Z,5.40
2019-03-11T11:44:12.723Z,5.60
2019-03-11T11:46:40.123Z,5.80
2019-03-11T11:49:07.611Z,5.80
2019-03-11T11:51:35.204Z,5.90
2019-03-11T11:54:02.652Z,5.70
2019-03-11T11:56:29.991Z,5.80
2019-03-11T11:58:57.414Z,5.60
2019-03-11T12:01:24.803Z,5.60
2019-03-11T12:03:52.199Z,5.40
2019-03-11T12:06:19.612Z,5.50
2019-03-11T12:08:47.031Z,5.20
2019-03-11T12:11:14.412Z,5.00
2019-03-11T12:13:42.011Z,4.70
2019-03-11T12:16:09.416Z,4.50
2019-03-11T12:18:36.812Z,4.70
2019-03-11T12:21:04.402Z,4.70
2019-03-11T12:23:31.804Z,4.90
2019-03-11T12:25:59.199Z,5.10
2019-03-11T12:28:26.795Z,5.10
2019-03-11T12:30:54.568Z,5.20
2019-03-11T12:33:22.158Z,5.30
2019-03-11T12:35:49.783Z,5.40
2019-03-11T12:38:17.175Z,5.60
2019-03-11T12:40:44.571Z,5.60
2019-03-11T12:43:12.723Z,5.50
2019-03-11T12:45:40.120Z,5.40
2019-03-11T12:48:07.548Z,5.70
2019-03-11T12:50:35.279Z,5.80
2019-03-11T12:53:02.684Z,5.80
2019-03-11T12:55:30.171Z,6.00
2019-03-11T12:57:57.861Z,5.80
2019-03-11T13:00:25.348Z,5.90
2019-03-11T13:02:52.747Z,5.80
2019-03-11T13:05:20.406Z,6.00
2019-03-11T13:07:48.007Z,6.30
2019-03-11T13:10:16.846Z,6.40
2019-03-11T13:12:44.267Z,6.30
2019-03-11T13:15:12.603Z,6.20
2019-03-11T13:17:39.995Z,6.40
2019-03-11T13:20:13.429Z,6.50
2019-03-11T13:22:40.869Z,6.70
2019-03-11T13:25:08.305Z,6.80
2019-03-11T13:27:36.011Z,6.40
2019-03-11T13:30:04.413Z,6.60
2019-03-11T13:32:31.966Z,6.80
2019-03-11T13:34:59.656Z,6.70
2019-03-11T13:37:27.051Z,6.70
2019-03-11T13:39:54.436Z,6.60
2019-03-11T13:42:21.877Z,6.60
2019-03-11T13:44:49.379Z,6.80
2019-03-11T13:47:16.762Z,7.00
2019-03-11T13:49:46.033Z,7.10
2019-03-11T13:52:13.430Z,7.30
2019-03-11T13:54:40.829Z,7.50
2019-03-11T13:57:08.270Z,7.50
2019-03-11T13:59:35.656Z,7.70
2019-03-11T14:02:03.052Z,7.80
2019-03-11T14:04:30.567Z,7.50
2019-03-11T14:06:57.964Z,7.40
2019-03-11T14:09:25.382Z,7.40
2019-03-11T14:11:52.828Z,7.40
2019-03-11T14:14:20.235Z,7.40
2019-03-11T14:16:47.625Z,7.40
2019-03-11T14:19:15.080Z,7.40
2019-03-11T14:21:42.467Z,7.40
2019-03-11T14:24:09.888Z,7.50
2019-03-11T14:26:37.564Z,7.60
2019-03-11T14:29:04.947Z,7.60
2019-03-11T14:31:32.702Z,7.60
2019-03-11T14:34:00.431Z,7.40
2019-03-11T14:36:27.827Z,7.60
2019-03-11T14:38:55.233Z,7.50
2019-03-11T14:41:22.845Z,7.60
2019-03-11T14:43:50.238Z,7.20
2019-03-11T14:46:17.659Z,7.30
2019-03-11T14:48:45.236Z,7.40
2019-03-11T14:51:12.630Z,7.30
2019-03-11T14:53:40.035Z,7.40
2019-03-11T14:56:07.467Z,7.60
2019-03-11T14:58:34.875Z,7.50
2019-03-11T15:01:02.273Z,7.50
2019-03-11T15:03:29.910Z,7.40
2019-03-11T15:05:57.308Z,7.40
2019-03-11T15:08:24.723Z,7.30
2019-03-11T15:10:52.407Z,7.50
2019-03-11T15:13:19.790Z,7.70
2019-03-11T15:15:47.196Z,7.90
2019-03-11T15:18:14.630Z,7.90
2019-03-11T15:20:42.015Z,7.70
2019-03-11T15:23:20.037Z,7.70
2019-03-11T15:25:39.115Z,7.10
2019-03-11T15:28:06.517Z,7.30
2019-03-11T15:30:33.905Z,7.30
2019-03-11T15:33:01.502Z,6.80
2019-03-11T15:35:29.283Z,6.80
2019-03-11T15:37:56.686Z,6.60
2019-03-11T15:40:24.139Z,6.70
2019-03-11T15:42:51.545Z,6.60
2019-03-11T15:45:19.051Z,6.60
2019-03-11T15:47:46.621Z,6.50
2019-03-11T15:50:33.999Z,6.60
2019-03-11T15:53:01.415Z,6.40
2019-03-11T15:55:28.823Z,6.20
2019-03-11T15:57:56.599Z,6.40
2019-03-11T16:00:23.993Z,6.30
2019-03-11T16:02:51.488Z,6.30
2019-03-11T16:05:19.172Z,6.30
2019-03-11T16:07:46.866Z,6.00
2019-03-11T16:10:17.116Z,6.10
2019-03-11T16:12:43.655Z,6.10
2019-03-11T16:15:11.385Z,6.10
2019-03-11T16:17:38.782Z,6.00
2019-03-11T16:20:08.734Z,6.00
2019-03-11T16:22:36.206Z,6.00
2019-03-11T16:25:04.820Z,5.90
2019-03-11T16:27:32.579Z,6.00
2019-03-11T16:29:59.982Z,5.90
2019-03-11T16:32:27.380Z,5.80
2019-03-11T16:34:54.979Z,5.60
2019-03-11T16:37:22.366Z,5.40
2019-03-11T16:39:49.759Z,5.50
2019-03-11T16:42:17.192Z,5.30
2019-03-11T16:44:44.588Z,5.00
2019-03-11T16:47:11.971Z,4.80
2019-03-11T16:49:39.639Z,4.50
2019-03-11T16:52:07.523Z,4.50
2019-03-11T16:54:34.910Z,4.40
2019-03-11T16:57:02.542Z,4.50
2019-03-11T16:59:29.944Z,4.30
2019-03-11T17:01:57.342Z,4.30
2019-03-11T17:04:24.777Z,4.30
2019-03-11T17:06:52.186Z,4.30
2019-03-11T17:09:19.583Z,4.30
2019-03-11T17:11:47.323Z,4.10
2019-03-11T17:14:14.715Z,3.90
2019-03-11T17:16:43.902Z,3.80
2019-03-11T17:19:11.650Z,3.60
2019-03-11T17:21:40.756Z,3.60
2019-03-11T17:24:08.173Z,3.60
2019-03-11T17:26:35.678Z,3.70
2019-03-11T17:29:03.081Z,3.70
2019-03-11T17:31:30.475Z,3.60
2019-03-11T17:33:57.915Z,3.50
2019-03-11T17:36:25.307Z,3.60
2019-03-11T17:38:52.724Z,3.60
2019-03-11T17:41:20.654Z,3.60
2019-03-11T17:43:48.071Z,3.70
2019-03-11T17:46:15.459Z,3.80
2019-03-11T17:48:43.195Z,3.90
2019-03-11T17:51:11.340Z,3.90
2019-03-11T17:53:38.734Z,3.80
2019-03-11T17:56:06.340Z,3.70
2019-03-11T17:58:33.739Z,3.70
2019-03-11T18:01:01.123Z,3.80
2019-03-11T18:03:28.590Z,3.70
2019-03-11T18:05:57.176Z,3.80
2019-03-11T18:08:24.782Z,3.60
2019-03-11T18:10:52.461Z,3.70
2019-03-11T18:13:19.867Z,3.60
2019-03-11T18:15:47.259Z,3.80
2019-03-11T18:18:14.719Z,3.70
2019-03-11T18:20:42.131Z,3.80
2019-03-11T18:23:09.516Z,4.00
2019-03-11T18:25:36.939Z,4.00
2019-03-11T18:28:04.353Z,4.00
2019-03-11T18:30:31.929Z,4.10
2019-03-11T18:32:59.499Z,4.20
2019-03-11T18:35:26.905Z,4.20
2019-03-11T18:38:03.231Z,4.20
2019-03-11T18:40:23.762Z,4.30
2019-03-11T18:42:51.163Z,4.30
2019-03-11T18:45:18.537Z,4.40
2019-03-11T18:47:46.392Z,4.50
2019-03-11T18:50:14.253Z,4.60
2019-03-11T18:52:42.327Z,4.50
2019-03-11T18:55:10.282Z,4.50
2019-03-11T18:57:37.792Z,4.50
2019-03-11T19:00:07.165Z,4.60
2019-03-11T19:02:34.613Z,4.60
2019-03-11T19:05:21.578Z,4.70
2019-03-11T19:07:49.638Z,4.50
2019-03-11T19:10:17.082Z,4.50
2019-03-11T19:12:44.613Z,4.40
2019-03-11T19:15:13.984Z,4.30
2019-03-11T19:17:41.384Z,4.00
2019-03-11T19:20:10.799Z,3.90
2019-03-11T19:22:38.535Z,3.80
2019-03-11T19:25:06.183Z,3.80
2019-03-11T19:27:33.585Z,3.70
2019-03-11T19:30:01.368Z,3.70
2019-03-11T19:32:28.622Z,3.60
2019-03-11T19:34:56.039Z,3.60
2019-03-11T19:37:23.654Z,3.60
2019-03-11T19:39:51.022Z,3.70
2019-03-11T19:42:18.464Z,3.70
2019-03-11T19:44:47.446Z,3.80
2019-03-11T19:47:15.115Z,3.80
2019-03-11T19:49:44.373Z,3.70
2019-03-11T19:52:11.870Z,3.60
2019-03-11T19:54:39.324Z,3.50
2019-03-11T19:57:06.740Z,3.60
2019-03-11T19:59:34.250Z,3.70
2019-03-11T20:02:01.638Z,3.80
2019-03-11T20:04:29.020Z,4.00
2019-03-11T20:06:56.492Z,4.00
2019-03-11T20:09:24.094Z,4.00
2019-03-11T20:11:53.953Z,4.10
2019-03-11T20:14:20.815Z,4.20
2019-03-11T20:16:48.204Z,4.30
2019-03-11T20:19:15.581Z,4.40
2019-03-11T20:21:43.139Z,4.40
2019-03-11T20:24:10.597Z,4.40
2019-03-11T20:26:38.001Z,4.40
2019-03-11T20:29:06.209Z,4.50
2019-03-11T20:31:33.981Z,4.50
2019-03-11T20:34:01.824Z,4.60
2019-03-11T20:36:29.501Z,4.60
2019-03-11T20:38:56.870Z,4.60
2019-03-11T20:41:24.276Z,4.60
2019-03-11T20:43:51.886Z,4.70
2019-03-11T20:46:19.702Z,4.70
2019-03-11T20:48:47.088Z,4.70
2019-03-11T20:51:14.547Z,4.70
2019-03-11T20:53:42.023Z,4.70
2019-03-11T20:56:09.563Z,4.70
2019-03-11T20:58:37.270Z,4.70
2019-03-11T21:01:05.067Z,4.80
2019-03-11T21:03:32.577Z,4.80
2019-03-11T21:06:00.365Z,4.70
2019-03-11T21:08:28.172Z,4.70
2019-03-11T21:10:55.895Z,4.80
2019-03-11T21:13:23.665Z,4.70
2019-03-11T21:15:51.092Z,4.80
2019-03-11T21:18:18.473Z,4.90
2019-03-11T21:20:46.306Z,4.80
2019-03-11T21:23:13.879Z,4.90
2019-03-11T21:25:41.297Z,4.90
2019-03-11T21:28:08.675Z,4.90
2019-03-11T21:30:36.118Z,4.80
2019-03-11T21:33:03.848Z,5.00
2019-03-11T21:35:31.445Z,4.90
2019-03-11T21:37:58.936Z,4.90
2019-03-11T21:40:26.703Z,4.90
2019-03-11T21:42:54.334Z,4.90
2019-03-11T21:45:33.599Z,5.00
2019-03-11T21:47:51.390Z,5.00
2019-03-11T21:50:20.137Z,5.00
2019-03-11T21:52:47.705Z,4.90
2019-03-11T21:55:15.145Z,4.90
2019-03-11T21:57:42.698Z,5.00
2019-03-11T22:00:13.003Z,5.00
2019-03-11T22:02:40.350Z,5.00
2019-03-11T22:05:08.238Z,5.00
2019-03-11T22:07:35.919Z,4.90
2019-03-11T22:10:04.939Z,5.00
2019-03-11T22:12:32.555Z,4.90
2019-03-11T22:14:59.968Z,4.90
2019-03-11T22:17:27.371Z,4.90
2019-03-11T22:19:54.790Z,5.00
2019-03-11T22:22:22.198Z,5.10
2019-03-11T22:24:49.611Z,5.10
2019-03-11T22:27:17.012Z,5.20
2019-03-11T22:29:44.421Z,5.10
2019-03-11T22:32:11.810Z,4.90
2019-03-11T22:34:39.267Z,4.80
2019-03-11T22:37:06.663Z,4.80
2019-03-11T22:39:34.070Z,4.70
2019-03-11T22:42:01.634Z,4.60
2019-03-11T22:44:29.179Z,4.60
2019-03-11T22:46:56.590Z,4.60
2019-03-11T22:49:24.009Z,4.60
2019-03-11T22:51:51.424Z,4.50
2019-03-11T22:54:18.830Z,4.60
2019-03-11T22:56:46.483Z,4.40
2019-03-11T22:59:13.915Z,4.50
2019-03-11T23:01:41.809Z,4.40
2019-03-11T23:04:09.270Z,4.30
2019-03-11T23:06:36.868Z,4.30
2019-03-11T23:09:05.353Z,4.30
2019-03-11T23:11:32.814Z,4.30
2019-03-11T23:14:00.105Z,4.40
2019-03-11T23:16:27.501Z,4.40
2019-03-11T23:18:55.073Z,4.40
2019-03-11T23:21:22.568Z,4.50
2019-03-11T23:23:49.958Z,4.50
2019-03-11T23:26:17.398Z,4.50
2019-03-11T23:28:44.810Z,4.50
2019-03-11T23:31:12.214Z,4.60
2019-03-11T23:33:39.839Z,4.60
2019-03-11T23:36:07.577Z,4.50
2019-03-11T23:38:35.049Z,4.50
2019-03-11T23:41:02.603Z,4.50
2019-03-11T23:43:30.004Z,4.60
2019-03-11T23:45:57.464Z,4.70
2019-03-11T23:48:25.131Z,4.70
2019-03-11T23:50:54.468Z,4.80
2019-03-11T23:53:21.713Z,4.60
2019-03-11T23:55:49.039Z,4.60
2019-03-11T23:58:16.405Z,4.60
